createdAt,value
2022-12-15T00:02:19.473Z,21.53
2022-12-15T00:05:04.978Z,22.13
2022-12-15T00:07:50.467Z,21.77
2022-12-15T00:10:35.716Z,22.30
2022-12-15T00:13:21.216Z,22.80
2022-12-15T00:16:06.690Z,22.80
2022-12-15T00:18:53.196Z,22.47
2022-12-15T00:21:38.645Z,20.60
2022-12-15T00:24:24.485Z,23.00
2022-12-15T00:27:10.024Z,23.07
2022-12-15T00:29:55.330Z,21.13
2022-12-15T00:32:40.619Z,23.07
2022-12-15T00:35:27.727Z,21.80
2022-12-15T00:38:13.214Z,23.30
2022-12-15T00:40:40.832Z,21.97
2022-12-15T00:43:11.951Z,22.20
2022-12-15T00:45:57.711Z,23.07
2022-12-15T00:48:25.287Z,22.47
2022-12-15T00:50:53.312Z,23.63
2022-12-15T00:53:38.833Z,21.13
2022-12-15T00:56:24.765Z,21.60
2022-12-15T00:59:10.281Z,21.17
2022-12-15T01:01:55.836Z,22.07
2022-12-15T01:04:41.030Z,22.13
2022-12-15T01:07:27.750Z,21.43
2022-12-15T01:10:13.111Z,20.60
2022-12-15T01:12:58.598Z,21.97
2022-12-15T01:15:43.963Z,22.53
2022-12-15T01:18:29.445Z,21.60
2022-12-15T01:20:57.693Z,22.03
2022-12-15T01:23:27.220Z,20.43
2022-12-15T01:25:55.363Z,20.30
2022-12-15T01:28:23.166Z,21.60
2022-12-15T01:30:50.844Z,22.63
2022-12-15T01:33:18.932Z,24.00
2022-12-15T01:35:47.530Z,22.57
2022-12-15T01:38:15.105Z,22.00
2022-12-15T01:40:52.333Z,20.57
2022-12-15T01:43:22.402Z,20.50
2022-12-15T01:45:58.917Z,21.03
2022-12-15T01:48:35.339Z,21.90
2022-12-15T01:51:11.606Z,21.23
2022-12-15T01:53:42.008Z,20.13
2022-12-15T01:56:11.358Z,23.40
2022-12-15T01:58:42.086Z,21.77
2022-12-15T02:01:10.217Z,22.73
2022-12-15T02:03:39.213Z,32.43
2022-12-15T02:06:07.826Z,23.20
2022-12-15T02:08:35.439Z,20.50
2022-12-15T02:11:23.942Z,23.07
2022-12-15T02:13:57.454Z,21.63
2022-12-15T02:16:31.792Z,20.67
2022-12-15T02:19:04.366Z,21.93
2022-12-15T02:21:34.611Z,20.90
2022-12-15T02:24:31.417Z,20.97
2022-12-15T02:27:17.173Z,22.40
2022-12-15T02:30:20.472Z,22.03
2022-12-15T02:32:58.879Z,21.17
2022-12-15T02:35:30.587Z,21.83
2022-12-15T02:37:58.241Z,22.40
2022-12-15T02:40:25.811Z,22.17
2022-12-15T02:42:54.718Z,22.47
2022-12-15T02:45:28.407Z,23.10
2022-12-15T02:48:11.008Z,22.27
2022-12-15T02:50:58.811Z,21.27
2022-12-15T02:54:04.463Z,22.00
2022-12-15T02:56:37.699Z,22.33
2022-12-15T02:59:11.123Z,21.83
2022-12-15T03:01:42.953Z,23.27
2022-12-15T03:04:13.513Z,23.13
2022-12-15T03:06:41.292Z,22.60
2022-12-15T03:09:08.927Z,23.17
2022-12-15T03:11:37.807Z,22.60
2022-12-15T03:14:05.384Z,22.33
2022-12-15T03:16:33.132Z,21.37
2022-12-15T03:19:00.826Z,19.63
2022-12-15T03:21:29.780Z,19.57
2022-12-15T03:23:57.349Z,19.90
2022-12-15T03:26:24.910Z,19.27
2022-12-15T03:28:52.787Z,20.73
2022-12-15T03:31:20.419Z,20.40
2022-12-15T03:33:48.100Z,22.40
2022-12-15T03:36:15.657Z,23.40
2022-12-15T03:38:44.548Z,20.93
2022-12-15T03:41:12.157Z,21.03
2022-12-15T03:43:39.733Z,21.70
2022-12-15T03:46:07.365Z,21.17
2022-12-15T03:48:34.981Z,20.83
2022-12-15T03:51:02.546Z,22.23
2022-12-15T03:53:30.434Z,22.47
2022-12-15T03:55:59.677Z,21.17
2022-12-15T03:58:27.244Z,22.40
2022-12-15T04:00:54.898Z,21.67
2022-12-15T04:03:22.747Z,28.73
2022-12-15T04:05:50.414Z,24.10
2022-12-15T04:08:17.990Z,21.77
2022-12-15T04:10:45.623Z,22.57
2022-12-15T04:13:14.565Z,22.03
2022-12-15T04:15:42.191Z,22.33
2022-12-15T04:18:11.476Z,23.23
2022-12-15T04:20:40.110Z,22.13
2022-12-15T04:23:07.909Z,23.10
2022-12-15T04:25:54.143Z,21.97
2022-12-15T04:28:40.765Z,21.03
2022-12-15T04:31:27.688Z,21.07
2022-12-15T04:34:15.019Z,22.33
2022-12-15T04:37:01.882Z,23.33
2022-12-15T04:39:47.222Z,22.83
2022-12-15T04:42:32.652Z,20.90
2022-12-15T04:45:21.269Z,22.57
2022-12-15T04:48:06.478Z,22.27
2022-12-15T04:50:52.002Z,21.10
2022-12-15T04:53:37.855Z,20.20
2022-12-15T04:56:23.247Z,21.10
2022-12-15T04:59:08.791Z,21.07
2022-12-15T05:01:55.645Z,22.20
2022-12-15T05:04:41.313Z,21.97
2022-12-15T05:07:26.311Z,23.77
2022-12-15T05:10:15.203Z,22.70
2022-12-15T05:13:00.569Z,24.03
2022-12-15T05:15:45.935Z,23.80
2022-12-15T05:18:32.374Z,25.67
2022-12-15T05:21:17.874Z,24.27
2022-12-15T05:24:03.217Z,23.47
2022-12-15T05:26:52.627Z,23.53
2022-12-15T05:29:38.535Z,23.67
2022-12-15T05:32:06.417Z,21.57
2022-12-15T05:34:37.071Z,23.93
2022-12-15T05:37:05.781Z,23.20
2022-12-15T05:39:33.592Z,22.47
2022-12-15T05:42:01.291Z,23.23
2022-12-15T05:44:29.500Z,24.13
2022-12-15T05:46:57.332Z,22.33
2022-12-15T05:49:25.285Z,27.20
2022-12-15T05:51:54.171Z,30.93
2022-12-15T05:54:21.959Z,24.77
2022-12-15T05:56:50.264Z,24.73
2022-12-15T05:59:18.949Z,22.93
2022-12-15T06:01:46.826Z,21.90
2022-12-15T06:04:14.754Z,24.83
2022-12-15T06:06:42.663Z,24.60
2022-12-15T06:09:11.836Z,24.40
2022-12-15T06:11:39.732Z,23.03
2022-12-15T06:14:07.938Z,23.57
2022-12-15T06:16:39.558Z,24.80
2022-12-15T06:19:10.436Z,22.73
2022-12-15T06:21:38.016Z,22.63
2022-12-15T06:24:07.288Z,21.60
2022-12-15T06:26:37.857Z,21.23
2022-12-15T06:29:07.625Z,20.40
2022-12-15T06:31:37.008Z,23.00
2022-12-15T06:34:05.328Z,21.03
2022-12-15T06:36:33.006Z,21.37
2022-12-15T06:39:01.539Z,21.37
2022-12-15T06:41:30.922Z,22.67
2022-12-15T06:44:00.822Z,21.93
2022-12-15T06:46:30.440Z,22.50
2022-12-15T06:48:58.983Z,22.73
2022-12-15T06:51:29.859Z,20.97
2022-12-15T06:53:57.441Z,23.17
2022-12-15T06:56:33.005Z,22.43
2022-12-15T06:59:03.740Z,23.30
2022-12-15T07:01:32.287Z,22.30
2022-12-15T07:04:02.789Z,23.70
2022-12-15T07:06:34.189Z,24.00
2022-12-15T07:09:01.908Z,25.67
2022-12-15T07:11:29.731Z,23.80
2022-12-15T07:13:57.376Z,24.43
2022-12-15T07:16:26.778Z,23.60
2022-12-15T07:18:54.473Z,22.17
2022-12-15T07:21:22.056Z,22.60
2022-12-15T07:23:55.173Z,25.00
2022-12-15T07:26:23.539Z,24.40
2022-12-15T07:28:51.173Z,26.23
2022-12-15T07:31:18.846Z,23.37
2022-12-15T07:33:48.262Z,24.97
2022-12-15T07:36:16.493Z,25.73
2022-12-15T07:38:45.408Z,29.03
2022-12-15T07:41:18.091Z,24.03
2022-12-15T07:43:47.021Z,25.07
2022-12-15T07:46:14.848Z,27.10
2022-12-15T07:48:42.507Z,25.10
2022-12-15T07:51:19.129Z,24.17
2022-12-15T07:53:47.466Z,23.93
2022-12-15T07:56:15.649Z,28.40
2022-12-15T07:58:43.448Z,23.23
2022-12-15T08:01:12.771Z,22.73
2022-12-15T08:03:41.335Z,22.63
2022-12-15T08:06:11.975Z,21.70
2022-12-15T08:08:40.232Z,22.53
2022-12-15T08:11:08.468Z,21.43
2022-12-15T08:16:24.933Z,20.73
2022-12-15T08:18:52.708Z,21.17
2022-12-15T08:21:21.766Z,19.43
2022-12-15T08:23:49.461Z,20.43
2022-12-15T08:26:18.809Z,21.10
2022-12-15T08:28:46.815Z,20.73
2022-12-15T08:31:16.849Z,22.23
2022-12-15T08:33:45.415Z,22.17
2022-12-15T08:36:14.984Z,21.30
2022-12-15T08:38:44.735Z,24.53
2022-12-15T08:41:14.239Z,22.63
2022-12-15T08:43:48.157Z,22.03
2022-12-15T08:46:17.010Z,22.17
2022-12-15T08:48:45.027Z,20.17
2022-12-15T08:51:12.701Z,20.77
2022-12-15T08:53:40.475Z,22.53
2022-12-15T08:56:12.140Z,20.93
2022-12-15T08:58:40.207Z,20.77
2022-12-15T09:01:10.806Z,21.13
2022-12-15T09:03:38.839Z,19.70
2022-12-15T09:06:07.898Z,20.17
2022-12-15T09:08:36.003Z,20.53
2022-12-15T09:11:05.557Z,22.10
2022-12-15T09:13:35.273Z,21.47
2022-12-15T09:16:10.456Z,22.80
2022-12-15T09:18:38.255Z,21.73
2022-12-15T09:21:07.852Z,22.70
2022-12-15T09:23:37.144Z,21.63
2022-12-15T09:26:06.599Z,22.03
2022-12-15T09:28:35.997Z,24.93
2022-12-15T09:31:04.178Z,22.73
2022-12-15T09:33:32.353Z,22.83
2022-12-15T09:36:00.292Z,24.17
2022-12-15T09:38:27.882Z,20.53
2022-12-15T09:40:55.830Z,24.00
2022-12-15T09:43:46.416Z,22.87
2022-12-15T09:46:22.148Z,21.67
2022-12-15T09:48:50.633Z,21.23
2022-12-15T09:51:19.421Z,22.17
2022-12-15T09:53:56.111Z,20.83
2022-12-15T09:56:29.740Z,22.07
2022-12-15T09:59:02.052Z,21.57
2022-12-15T10:01:35.538Z,21.57
2022-12-15T10:04:08.047Z,21.93
2022-12-15T10:06:39.659Z,22.27
2022-12-15T10:09:15.922Z,21.27
2022-12-15T10:11:50.680Z,21.40
2022-12-15T10:14:25.894Z,20.97
2022-12-15T10:17:02.420Z,20.83
2022-12-15T10:19:35.503Z,21.97
2022-12-15T10:22:03.500Z,22.20
2022-12-15T10:27:41.264Z,20.93
2022-12-15T10:30:10.785Z,21.47
2022-12-15T10:32:52.096Z,21.03
2022-12-15T10:35:23.918Z,22.73
2022-12-15T10:37:51.853Z,21.93
2022-12-15T10:40:20.988Z,20.93
2022-12-15T10:42:50.259Z,21.30
2022-12-15T10:45:39.552Z,20.90
2022-12-15T10:48:19.564Z,23.50
2022-12-15T10:50:50.062Z,23.73
2022-12-15T10:53:35.478Z,21.83
2022-12-15T10:56:03.395Z,25.20
2022-12-15T10:58:31.041Z,21.97
2022-12-15T11:01:08.127Z,22.00
2022-12-15T11:03:40.377Z,21.13
2022-12-15T11:06:14.162Z,20.93
2022-12-15T11:08:42.861Z,22.17
2022-12-15T11:11:45.217Z,21.53
2022-12-15T11:14:15.996Z,21.47
2022-12-15T11:16:50.694Z,21.63
2022-12-15T11:19:29.938Z,23.33
2022-12-15T11:22:02.732Z,22.30
2022-12-15T11:24:36.486Z,23.47
2022-12-15T11:27:11.500Z,23.30
2022-12-15T11:29:47.415Z,23.37
2022-12-15T11:32:19.302Z,22.87
2022-12-15T11:34:48.778Z,24.43
2022-12-15T11:40:39.894Z,25.93
2022-12-15T11:43:21.807Z,25.53
2022-12-15T11:46:03.035Z,24.53
2022-12-15T11:48:36.823Z,22.93
2022-12-15T11:51:07.623Z,24.03
2022-12-15T11:53:46.823Z,24.23
2022-12-15T11:56:26.105Z,25.30
2022-12-15T11:59:17.692Z,24.87
2022-12-15T12:02:03.020Z,24.87
2022-12-15T12:04:39.807Z,23.87
2022-12-15T12:07:15.690Z,25.47
2022-12-15T12:09:48.669Z,25.70
2022-12-15T12:12:21.849Z,24.33
2022-12-15T12:14:58.984Z,22.60
2022-12-15T12:17:34.535Z,24.07
2022-12-15T12:20:11.252Z,24.40
2022-12-15T12:22:43.300Z,24.67
2022-12-15T12:25:14.601Z,25.63
2022-12-15T12:30:40.397Z,24.30
2022-12-15T12:33:14.138Z,23.87
2022-12-15T12:35:46.487Z,23.03
2022-12-15T12:38:20.186Z,23.43
2022-12-15T12:40:54.982Z,25.13
2022-12-15T12:43:34.015Z,25.97
2022-12-15T12:46:06.327Z,23.30
2022-12-15T12:48:37.672Z,24.23
2022-12-15T12:51:14.961Z,23.27
2022-12-15T12:53:43.974Z,25.33
2022-12-15T12:56:30.247Z,25.30
2022-12-15T12:58:58.043Z,25.97
2022-12-15T13:01:28.916Z,24.40
2022-12-15T13:04:11.780Z,25.47
2022-12-15T13:07:06.831Z,26.60
2022-12-15T13:09:41.532Z,29.13
2022-12-15T13:12:51.020Z,25.93
2022-12-15T13:15:30.646Z,25.87
2022-12-15T13:18:01.404Z,25.13
2022-12-15T13:20:30.789Z,24.90
2022-12-15T13:23:32.239Z,26.07
2022-12-15T13:26:12.728Z,26.17
2022-12-15T13:28:46.217Z,27.23
2022-12-15T13:31:27.605Z,28.47
2022-12-15T13:33:59.893Z,25.27
2022-12-15T13:36:52.573Z,26.23
2022-12-15T13:39:37.014Z,26.20
2022-12-15T13:42:35.957Z,26.57
2022-12-15T13:45:35.874Z,24.00
2022-12-15T13:48:12.615Z,24.07
2022-12-15T13:50:51.531Z,24.63
2022-12-15T13:53:21.917Z,26.40
2022-12-15T13:56:00.351Z,26.67
2022-12-15T13:58:30.158Z,26.80
2022-12-15T14:00:59.673Z,26.93
2022-12-15T14:03:27.433Z,26.57
2022-12-15T14:05:56.512Z,27.57
2022-12-15T14:08:25.345Z,27.07
2022-12-15T14:10:54.613Z,28.87
2022-12-15T14:13:24.696Z,27.87
2022-12-15T14:15:55.424Z,29.33
2022-12-15T14:18:28.943Z,29.90
2022-12-15T14:20:57.062Z,31.07
2022-12-15T14:23:26.890Z,28.90
2022-12-15T14:25:56.965Z,31.47
2022-12-15T14:28:30.875Z,30.80
2022-12-15T14:31:04.075Z,29.93
2022-12-15T14:33:35.341Z,27.97
2022-12-15T14:36:06.310Z,31.57
2022-12-15T14:38:40.226Z,35.27
2022-12-15T14:41:11.017Z,34.23
2022-12-15T14:43:40.162Z,29.00
2022-12-15T14:46:11.123Z,28.50
2022-12-15T14:48:41.699Z,28.03
2022-12-15T14:51:22.169Z,25.57
2022-12-15T14:53:53.301Z,26.90
2022-12-15T14:56:30.357Z,26.77
2022-12-15T14:59:03.476Z,26.87
2022-12-15T15:01:36.635Z,25.13
2022-12-15T15:03:07.112Z,26.27
2022-12-15T15:03:09.173Z,24.27
2022-12-15T15:04:06.318Z,28.33
2022-12-15T15:06:38.160Z,26.83
2022-12-15T15:09:18.050Z,25.20
2022-12-15T15:11:45.782Z,26.50
2022-12-15T15:14:15.774Z,25.90
2022-12-15T15:16:45.321Z,26.67
2022-12-15T15:19:18.457Z,24.47
2022-12-15T15:21:46.919Z,25.20
2022-12-15T15:24:24.926Z,26.60
2022-12-15T15:26:53.108Z,26.73
2022-12-15T15:29:40.950Z,27.43
2022-12-15T15:32:16.919Z,26.80
2022-12-15T15:34:45.192Z,28.33
2022-12-15T15:37:18.530Z,25.40
2022-12-15T15:39:46.640Z,25.87
2022-12-15T15:42:14.227Z,26.53
2022-12-15T15:44:41.896Z,27.43
2022-12-15T15:47:19.201Z,31.00
2022-12-15T15:49:47.298Z,26.97
2022-12-15T15:52:14.966Z,26.63
2022-12-15T15:54:43.540Z,26.50
2022-12-15T15:57:14.179Z,28.63
2022-12-15T15:59:43.983Z,25.73
2022-12-15T16:02:14.300Z,24.83
2022-12-15T16:04:42.822Z,27.13
2022-12-15T16:07:18.114Z,29.87
2022-12-15T16:09:45.775Z,25.63
2022-12-15T16:12:22.319Z,28.37
2022-12-15T16:14:49.882Z,27.63
2022-12-15T16:17:18.925Z,29.17
2022-12-15T16:19:46.525Z,30.03
2022-12-15T16:22:16.599Z,29.97
2022-12-15T16:24:44.611Z,27.67
2022-12-15T16:27:13.237Z,30.75
2022-12-15T16:29:41.178Z,28.33
2022-12-15T16:32:10.358Z,28.53
2022-12-15T16:34:39.298Z,27.70
2022-12-15T16:37:07.038Z,27.87
2022-12-15T16:39:36.094Z,30.73
2022-12-15T16:42:04.039Z,32.93
2022-12-15T16:44:31.863Z,29.77
2022-12-15T16:46:59.822Z,27.93
2022-12-15T16:49:33.889Z,28.40
2022-12-15T16:52:07.134Z,33.53
2022-12-15T16:54:34.842Z,27.50
2022-12-15T16:57:03.844Z,27.00
2022-12-15T16:59:33.522Z,24.20
2022-12-15T17:02:02.270Z,27.87
2022-12-15T17:04:30.070Z,26.13
2022-12-15T17:06:57.639Z,25.70
2022-12-15T17:09:26.888Z,26.47
2022-12-15T17:11:54.547Z,26.97
2022-12-15T17:14:22.158Z,27.40
2022-12-15T17:16:50.299Z,26.50
2022-12-15T17:19:21.330Z,28.47
2022-12-15T17:21:51.795Z,26.77
2022-12-15T17:24:21.050Z,25.20
2022-12-15T17:26:50.450Z,25.87
2022-12-15T17:29:19.942Z,25.67
2022-12-15T17:31:47.651Z,26.70
2022-12-15T17:34:25.096Z,26.40
2022-12-15T17:36:52.875Z,25.93
2022-12-15T17:39:21.848Z,24.20
2022-12-15T17:41:59.748Z,25.60
2022-12-15T17:44:33.622Z,25.03
2022-12-15T17:47:03.113Z,23.90
2022-12-15T17:49:35.621Z,24.33
2022-12-15T17:52:07.431Z,25.13
2022-12-15T17:54:35.593Z,25.40
2022-12-15T17:57:04.786Z,24.23
2022-12-15T17:59:32.553Z,25.77
2022-12-15T18:02:00.666Z,26.17
2022-12-15T18:04:28.347Z,25.90
2022-12-15T18:07:01.642Z,26.50
2022-12-15T18:09:30.114Z,26.13
2022-12-15T18:11:57.942Z,26.07
2022-12-15T18:14:28.624Z,26.63
2022-12-15T18:16:56.221Z,33.08
2022-12-15T18:19:23.828Z,29.65
2022-12-15T18:21:51.561Z,26.77
2022-12-15T18:24:21.512Z,25.47
2022-12-15T18:26:49.536Z,24.43
2022-12-15T18:29:18.585Z,24.27
2022-12-15T18:31:49.278Z,24.33
2022-12-15T18:34:21.044Z,27.13
2022-12-15T18:36:48.831Z,25.53
2022-12-15T18:39:20.374Z,26.20
2022-12-15T18:41:48.318Z,22.90
2022-12-15T18:44:20.448Z,25.70
2022-12-15T18:46:49.480Z,23.30
2022-12-15T18:49:17.958Z,23.30
2022-12-15T18:51:46.379Z,24.13
2022-12-15T18:54:17.039Z,25.70
2022-12-15T18:56:44.653Z,25.83
2022-12-15T18:59:15.557Z,25.23
2022-12-15T19:01:43.838Z,23.03
2022-12-15T19:04:13.075Z,23.37
2022-12-15T19:06:41.045Z,22.53
2022-12-15T19:09:12.962Z,22.27
2022-12-15T19:11:40.619Z,21.30
2022-12-15T19:14:35.135Z,25.27
2022-12-15T19:17:20.120Z,22.07
2022-12-15T19:20:06.693Z,21.23
2022-12-15T19:22:34.255Z,21.37
2022-12-15T19:25:05.919Z,19.50
2022-12-15T19:27:33.522Z,20.80
2022-12-15T19:30:01.314Z,21.90
2022-12-15T19:32:28.921Z,20.47
2022-12-15T19:34:57.921Z,19.07
2022-12-15T19:37:28.996Z,18.60
2022-12-15T19:39:57.862Z,20.03
2022-12-15T19:42:35.404Z,20.40
2022-12-15T19:45:03.603Z,17.70
2022-12-15T19:47:31.160Z,21.33
2022-12-15T19:50:00.189Z,18.93
2022-12-15T19:52:28.266Z,19.93
2022-12-15T19:54:55.809Z,21.40
2022-12-15T19:57:23.431Z,21.43
2022-12-15T19:59:50.997Z,25.73
2022-12-15T20:02:20.346Z,20.33
2022-12-15T20:04:49.022Z,21.43
2022-12-15T20:07:19.628Z,22.33
2022-12-15T20:09:47.447Z,19.27
2022-12-15T20:12:17.955Z,20.87
2022-12-15T20:14:45.706Z,18.17
2022-12-15T20:17:13.311Z,18.03
2022-12-15T20:19:40.892Z,18.90
2022-12-15T20:22:12.170Z,18.40
2022-12-15T20:24:41.230Z,17.93
2022-12-15T20:27:13.034Z,19.27
2022-12-15T20:29:40.719Z,16.63
2022-12-15T20:32:15.530Z,18.07
2022-12-15T20:34:43.226Z,19.33
2022-12-15T20:37:18.205Z,18.33
2022-12-15T20:39:48.040Z,17.57
2022-12-15T20:42:20.069Z,18.70
2022-12-15T20:44:47.867Z,19.77
2022-12-15T20:47:19.130Z,20.63
2022-12-15T20:49:46.708Z,20.47
2022-12-15T20:52:20.181Z,18.37
2022-12-15T20:54:49.185Z,15.90
2022-12-15T20:57:17.558Z,21.83
2022-12-15T20:59:45.762Z,20.37
2022-12-15T21:02:18.814Z,18.80
2022-12-15T21:04:47.290Z,18.27
2022-12-15T21:07:14.945Z,18.90
2022-12-15T21:09:42.540Z,19.07
2022-12-15T21:12:18.102Z,16.10
2022-12-15T21:14:45.708Z,16.07
2022-12-15T21:17:15.708Z,18.37
2022-12-15T21:19:43.424Z,19.03
2022-12-15T21:22:17.118Z,20.63
2022-12-15T21:24:44.825Z,20.80
2022-12-15T21:27:15.483Z,19.33
2022-12-15T21:29:48.731Z,18.33
2022-12-15T21:32:19.786Z,20.87
2022-12-15T21:34:47.353Z,18.23
2022-12-15T21:37:23.249Z,22.73
2022-12-15T21:39:50.919Z,18.63
2022-12-15T21:42:20.973Z,21.57
2022-12-15T21:44:48.892Z,21.10
2022-12-15T21:47:24.848Z,22.87
2022-12-15T21:49:51.718Z,21.07
2022-12-15T21:52:20.926Z,21.03
2022-12-15T21:54:48.498Z,20.97
2022-12-15T21:57:16.066Z,20.47
2022-12-15T21:59:44.989Z,20.73
2022-12-15T22:02:25.057Z,21.83
2022-12-15T22:04:55.031Z,21.03
2022-12-15T22:07:22.817Z,22.63
2022-12-15T22:09:51.733Z,22.33
2022-12-15T22:12:21.264Z,24.10
2022-12-15T22:14:50.407Z,22.73
2022-12-15T22:17:21.612Z,22.80
2022-12-15T22:19:49.282Z,23.33
2022-12-15T22:22:17.023Z,24.57
2022-12-15T22:24:44.710Z,27.77
2022-12-15T22:27:18.766Z,24.37
2022-12-15T22:29:46.386Z,24.30
2022-12-15T22:32:16.304Z,25.17
2022-12-15T22:34:44.103Z,23.37
2022-12-15T22:37:13.134Z,23.80
2022-12-15T22:39:40.758Z,23.13
2022-12-15T22:42:09.105Z,24.77
2022-12-15T22:44:38.262Z,24.43
2022-12-15T22:47:05.960Z,29.47
2022-12-15T22:49:37.469Z,23.93
2022-12-15T22:52:15.078Z,24.53
2022-12-15T22:54:45.563Z,23.73
2022-12-15T22:57:20.574Z,23.17
2022-12-15T22:59:52.187Z,24.30
2022-12-15T23:02:22.139Z,23.27
2022-12-15T23:04:53.829Z,24.53
2022-12-15T23:07:22.348Z,25.10
2022-12-15T23:10:09.983Z,24.37
2022-12-15T23:12:36.646Z,24.10
2022-12-15T23:15:21.970Z,25.67
2022-12-15T23:17:49.631Z,25.40
2022-12-15T23:20:19.469Z,24.17
2022-12-15T23:22:47.150Z,26.10
2022-12-15T23:25:14.925Z,26.60
2022-12-15T23:27:43.042Z,26.23
2022-12-15T23:30:12.679Z,25.10
2022-12-15T23:32:40.370Z,25.70
2022-12-15T23:35:08.432Z,25.07
2022-12-15T23:37:37.402Z,24.07
2022-12-15T23:40:06.602Z,25.87
2022-12-15T23:42:34.153Z,25.03
2022-12-15T23:45:01.842Z,26.53
2022-12-15T23:47:29.564Z,25.83
2022-12-15T23:49:57.435Z,27.43
2022-12-15T23:52:28.345Z,26.53
2022-12-15T23:54:57.299Z,27.77
2022-12-15T23:57:24.899Z,27.90
2022-12-15T23:59:52.492Z,28.10
